createdAt,value
2018-01-18T00:00:01.630Z,1.80
2018-01-18T00:00:35.098Z,1.80
2018-01-18T00:01:08.786Z,1.80
2018-01-18T00:01:42.447Z,1.90
2018-01-18T00:02:16.115Z,1.90
2018-01-18T00:02:49.812Z,1.90
2018-01-18T00:03:23.466Z,1.90
2018-01-18T00:03:57.159Z,1.90
2018-01-18T00:04:30.810Z,1.90
2018-01-18T00:05:05.248Z,1.90
2018-01-18T00:05:38.903Z,1.90
2018-01-18T00:06:13.338Z,1.90
2018-01-18T00:06:46.997Z,1.90
2018-01-18T00:07:21.421Z,2.00
2018-01-18T00:07:55.103Z,1.90
2018-01-18T00:08:29.578Z,2.00
2018-01-18T00:09:03.053Z,2.00
2018-01-18T00:09:37.513Z,2.00
2018-01-18T00:10:11.217Z,2.00
2018-01-18T00:10:44.869Z,2.00
2018-01-18T00:11:18.834Z,2.00
2018-01-18T00:11:52.578Z,2.00
2018-01-18T00:12:27.763Z,2.00
2018-01-18T00:13:02.253Z,2.10
2018-01-18T00:13:35.909Z,2.00
2018-01-18T00:14:09.566Z,2.10
2018-01-18T00:14:43.618Z,2.10
2018-01-18T00:15:17.284Z,2.10
2018-01-18T00:15:51.888Z,2.10
2018-01-18T00:16:25.555Z,2.00
2018-01-18T00:16:59.997Z,2.10
2018-01-18T00:17:33.650Z,2.00
2018-01-18T00:18:07.338Z,2.10
2018-01-18T00:18:41.118Z,2.00
2018-01-18T00:19:15.560Z,2.00
2018-01-18T00:19:49.982Z,2.00
2018-01-18T00:20:23.636Z,2.00
2018-01-18T00:20:57.281Z,2.00
2018-01-18T00:21:30.956Z,2.00
2018-01-18T00:22:04.610Z,2.00
2018-01-18T00:22:39.049Z,2.00
2018-01-18T00:23:12.741Z,2.00
2018-01-18T00:23:46.411Z,2.00
2018-01-18T00:24:20.067Z,2.00
2018-01-18T00:24:54.489Z,2.00
2018-01-18T00:25:28.916Z,2.10
2018-01-18T00:26:02.587Z,2.10
2018-01-18T00:26:37.018Z,2.10
2018-01-18T00:27:10.687Z,2.00
2018-01-18T00:27:45.124Z,2.10
2018-01-18T00:28:18.831Z,2.10
2018-01-18T00:28:52.507Z,2.10
2018-01-18T00:29:26.195Z,2.10
2018-01-18T00:29:59.864Z,2.10
2018-01-18T00:30:34.292Z,2.00
2018-01-18T00:31:07.936Z,2.00
2018-01-18T00:31:41.649Z,2.10
2018-01-18T00:32:16.339Z,2.10
2018-01-18T00:32:49.991Z,2.10
2018-01-18T00:33:23.696Z,2.10
2018-01-18T00:33:57.361Z,2.10
2018-01-18T00:34:31.034Z,2.10
2018-01-18T00:35:04.385Z,2.00
2018-01-18T00:35:38.808Z,2.10
2018-01-18T00:36:13.353Z,2.10
2018-01-18T00:36:47.837Z,2.10
2018-01-18T00:37:22.245Z,2.10
2018-01-18T00:37:56.009Z,2.10
2018-01-18T00:38:30.478Z,2.10
2018-01-18T00:39:03.286Z,2.00
2018-01-18T00:39:37.897Z,2.10
2018-01-18T00:40:11.554Z,2.00
2018-01-18T00:40:45.234Z,2.10
2018-01-18T00:41:18.898Z,2.00
2018-01-18T00:41:52.547Z,2.10
2018-01-18T00:42:26.214Z,2.10
2018-01-18T00:42:59.859Z,2.10
2018-01-18T00:43:34.301Z,2.10
2018-01-18T00:44:08.147Z,2.10
2018-01-18T00:44:42.554Z,2.10
2018-01-18T00:45:17.157Z,2.10
2018-01-18T00:45:51.594Z,2.10
2018-01-18T00:46:25.250Z,2.10
2018-01-18T00:46:58.890Z,2.10
2018-01-18T00:47:32.551Z,2.20
2018-01-18T00:48:06.212Z,2.20
2018-01-18T00:48:39.894Z,2.20
2018-01-18T00:49:13.581Z,2.20
2018-01-18T00:49:47.246Z,2.20
2018-01-18T00:50:20.915Z,2.20
2018-01-18T00:50:54.663Z,2.20
2018-01-18T00:51:28.312Z,2.20
2018-01-18T00:52:01.971Z,2.20
2018-01-18T00:52:35.289Z,2.20
2018-01-18T00:53:08.941Z,2.20
2018-01-18T00:53:42.754Z,2.20
2018-01-18T00:54:17.351Z,2.20
2018-01-18T00:54:51.107Z,2.20
2018-01-18T00:55:24.778Z,2.20
2018-01-18T00:55:58.437Z,2.20
2018-01-18T00:56:32.107Z,2.20
2018-01-18T00:57:05.746Z,2.20
2018-01-18T00:57:39.404Z,2.20
2018-01-18T00:58:13.057Z,2.20
2018-01-18T00:58:47.502Z,2.20
2018-01-18T00:59:21.201Z,2.20
2018-01-18T00:59:54.843Z,2.20
2018-01-18T01:00:28.942Z,2.20
2018-01-18T01:01:03.357Z,2.20
2018-01-18T01:01:37.008Z,2.20
2018-01-18T01:02:10.665Z,2.20
2018-01-18T01:02:44.325Z,2.20
2018-01-18T01:03:17.989Z,2.20
2018-01-18T01:03:51.701Z,2.20
2018-01-18T01:04:26.134Z,2.20
2018-01-18T01:04:59.806Z,2.10
2018-01-18T01:05:33.480Z,2.20
2018-01-18T01:06:07.897Z,2.20
2018-01-18T01:06:42.316Z,2.20
2018-01-18T01:07:16.281Z,2.10
2018-01-18T01:07:49.953Z,2.20
2018-01-18T01:08:23.616Z,2.20
2018-01-18T01:08:57.322Z,2.20
2018-01-18T01:09:31.149Z,2.20
2018-01-18T01:10:05.569Z,2.20
2018-01-18T01:10:40.018Z,2.20
2018-01-18T01:11:13.699Z,2.20
2018-01-18T01:11:47.358Z,2.20
2018-01-18T01:12:21.028Z,2.20
2018-01-18T01:12:54.670Z,2.20
2018-01-18T01:13:28.346Z,2.20
2018-01-18T01:14:02.038Z,2.20
2018-01-18T01:14:35.694Z,2.20
2018-01-18T01:15:10.132Z,2.20
2018-01-18T01:15:43.788Z,2.20
2018-01-18T01:16:18.206Z,2.20
2018-01-18T01:16:51.856Z,2.20
2018-01-18T01:17:26.338Z,2.20
2018-01-18T01:18:00.034Z,2.30
2018-01-18T01:18:34.409Z,2.30
2018-01-18T01:19:08.114Z,2.20
2018-01-18T01:19:41.786Z,2.30
2018-01-18T01:20:16.272Z,2.30
2018-01-18T01:20:50.707Z,2.30
2018-01-18T01:21:24.371Z,2.20
2018-01-18T01:21:58.790Z,2.30
2018-01-18T01:22:32.479Z,2.20
2018-01-18T01:23:06.306Z,2.30
2018-01-18T01:23:39.958Z,2.30
2018-01-18T01:24:14.416Z,2.30
2018-01-18T01:24:48.093Z,2.30
2018-01-18T01:25:21.746Z,2.30
2018-01-18T01:25:55.409Z,2.30
2018-01-18T01:26:29.085Z,2.30
2018-01-18T01:27:02.749Z,2.30
2018-01-18T01:27:36.099Z,2.30
2018-01-18T01:28:09.771Z,2.30
2018-01-18T01:28:44.195Z,2.30
2018-01-18T01:29:17.902Z,2.30
2018-01-18T01:29:51.564Z,2.30
2018-01-18T01:30:25.995Z,2.30
2018-01-18T01:30:59.691Z,2.30
2018-01-18T01:31:33.549Z,2.40
2018-01-18T01:32:07.973Z,2.30
2018-01-18T01:32:41.689Z,2.30
2018-01-18T01:33:15.417Z,2.40
2018-01-18T01:33:49.831Z,2.40
2018-01-18T01:34:23.537Z,2.30
2018-01-18T01:34:57.971Z,2.40
2018-01-18T01:35:31.637Z,2.40
2018-01-18T01:36:06.052Z,2.40
2018-01-18T01:36:40.491Z,2.40
2018-01-18T01:37:14.259Z,2.40
2018-01-18T01:37:47.939Z,2.40
2018-01-18T01:38:22.349Z,2.40
2018-01-18T01:38:56.021Z,2.40
2018-01-18T01:39:30.437Z,2.50
2018-01-18T01:40:04.891Z,2.50
2018-01-18T01:40:38.562Z,2.50
2018-01-18T01:41:12.224Z,2.50
2018-01-18T01:41:46.851Z,2.50
2018-01-18T01:42:20.175Z,2.50
2018-01-18T01:42:53.971Z,2.50
2018-01-18T01:43:27.641Z,2.50
2018-01-18T01:44:01.979Z,2.50
2018-01-18T01:44:35.664Z,2.50
2018-01-18T01:45:09.320Z,2.50
2018-01-18T01:45:43.004Z,2.50
2018-01-18T01:46:16.665Z,2.50
2018-01-18T01:46:51.113Z,2.50
2018-01-18T01:47:24.764Z,2.50
2018-01-18T01:47:59.171Z,2.50
2018-01-18T01:48:38.721Z,2.50
2018-01-18T01:49:12.383Z,2.60
2018-01-18T01:49:46.864Z,2.60
2018-01-18T01:50:20.534Z,2.60
2018-01-18T01:50:54.201Z,2.60
2018-01-18T01:51:27.863Z,2.60
2018-01-18T01:52:02.289Z,2.50
2018-01-18T01:52:35.976Z,2.50
2018-01-18T01:53:09.648Z,2.60
2018-01-18T01:53:43.320Z,2.60
2018-01-18T01:54:17.742Z,2.60
2018-01-18T01:54:52.186Z,2.60
2018-01-18T01:55:25.838Z,2.60
2018-01-18T01:56:00.271Z,2.60
2018-01-18T01:56:33.920Z,2.60
2018-01-18T01:57:07.581Z,2.60
2018-01-18T01:57:41.243Z,2.60
2018-01-18T01:58:14.924Z,2.60
2018-01-18T01:58:48.582Z,2.60
2018-01-18T01:59:23.024Z,2.50
2018-01-18T01:59:56.723Z,2.50
2018-01-18T02:00:30.373Z,2.60
2018-01-18T02:01:04.471Z,2.60
2018-01-18T02:01:38.890Z,2.60
2018-01-18T02:02:12.556Z,2.60
2018-01-18T02:02:46.277Z,2.60
2018-01-18T02:03:19.949Z,2.60
2018-01-18T02:03:54.396Z,2.60
2018-01-18T02:04:28.044Z,2.60
2018-01-18T02:05:02.506Z,2.60
2018-01-18T02:05:36.899Z,2.60
2018-01-18T02:06:11.630Z,2.60
2018-01-18T02:06:46.035Z,2.60
2018-01-18T02:07:19.698Z,2.60
2018-01-18T02:07:53.369Z,2.60
2018-01-18T02:08:27.825Z,2.60
2018-01-18T02:09:02.313Z,2.60
2018-01-18T02:09:36.369Z,2.60
2018-01-18T02:10:10.816Z,2.60
2018-01-18T02:10:44.150Z,2.60
2018-01-18T02:11:18.463Z,2.60
2018-01-18T02:11:53.888Z,2.60
2018-01-18T02:12:28.083Z,2.60
2018-01-18T02:13:01.984Z,2.60
2018-01-18T02:13:35.846Z,2.60
2018-01-18T02:14:09.515Z,2.60
2018-01-18T02:14:43.262Z,2.60
2018-01-18T02:15:17.714Z,2.60
2018-01-18T02:15:52.774Z,2.60
2018-01-18T02:16:26.517Z,2.60
2018-01-18T02:17:00.184Z,2.60
2018-01-18T02:17:34.626Z,2.60
2018-01-18T02:18:07.955Z,2.60
2018-01-18T02:18:42.406Z,2.60
2018-01-18T02:19:16.069Z,2.60
2018-01-18T02:19:50.490Z,2.60
2018-01-18T02:20:24.191Z,2.60
2018-01-18T02:20:57.853Z,2.60
2018-01-18T02:21:32.297Z,2.60
2018-01-18T02:22:05.976Z,2.60
2018-01-18T02:22:39.638Z,2.60
2018-01-18T02:23:14.077Z,2.70
2018-01-18T02:23:47.735Z,2.70
2018-01-18T02:24:22.174Z,2.70
2018-01-18T02:24:55.833Z,2.60
2018-01-18T02:25:30.292Z,2.70
2018-01-18T02:26:03.973Z,2.70
2018-01-18T02:26:37.638Z,2.70
2018-01-18T02:27:11.312Z,2.70
2018-01-18T02:27:44.968Z,2.70
2018-01-18T02:28:18.679Z,2.70
2018-01-18T02:28:53.099Z,2.70
2018-01-18T02:29:27.551Z,2.70
2018-01-18T02:30:01.225Z,2.70
2018-01-18T02:30:34.916Z,2.70
2018-01-18T02:31:08.577Z,2.70
2018-01-18T02:31:42.352Z,2.70
2018-01-18T02:32:16.777Z,2.70
2018-01-18T02:32:51.303Z,2.70
2018-01-18T02:33:24.953Z,2.70
2018-01-18T02:33:58.749Z,2.70
2018-01-18T02:34:32.632Z,2.70
2018-01-18T02:35:06.297Z,2.70
2018-01-18T02:35:40.002Z,2.70
2018-01-18T02:36:13.662Z,2.70
2018-01-18T02:36:47.335Z,2.70
2018-01-18T02:37:21.105Z,2.70
2018-01-18T02:37:55.539Z,2.70
2018-01-18T02:38:29.202Z,2.70
2018-01-18T02:39:03.255Z,2.70
2018-01-18T02:39:36.949Z,2.70
2018-01-18T02:40:11.772Z,2.70
2018-01-18T02:40:45.483Z,2.80
2018-01-18T02:41:19.924Z,2.80
2018-01-18T02:41:53.582Z,2.80
2018-01-18T02:42:28.018Z,2.80
2018-01-18T02:43:01.683Z,2.80
2018-01-18T02:43:36.121Z,2.80
2018-01-18T02:44:09.773Z,2.80
2018-01-18T02:44:44.286Z,2.80
2018-01-18T02:45:18.733Z,2.90
2018-01-18T02:45:52.436Z,2.80
2018-01-18T02:46:26.329Z,2.90
2018-01-18T02:47:00.487Z,2.90
2018-01-18T02:47:36.569Z,3.00
2018-01-18T02:48:11.131Z,2.90
2018-01-18T02:48:45.566Z,3.00
2018-01-18T02:49:19.257Z,2.90
2018-01-18T02:49:54.360Z,3.00
2018-01-18T02:50:28.043Z,3.00
2018-01-18T02:51:02.502Z,3.00
2018-01-18T02:51:36.357Z,2.90
2018-01-18T02:52:10.782Z,3.00
2018-01-18T02:52:44.442Z,3.00
2018-01-18T02:53:18.298Z,3.00
2018-01-18T02:53:51.955Z,3.00
2018-01-18T02:54:25.626Z,3.00
2018-01-18T02:55:00.234Z,3.00
2018-01-18T02:55:34.662Z,3.00
2018-01-18T02:56:08.364Z,3.00
2018-01-18T02:56:42.022Z,3.00
2018-01-18T02:57:16.447Z,3.10
2018-01-18T02:57:50.109Z,3.10
2018-01-18T02:58:24.535Z,3.20
2018-01-18T02:58:58.202Z,3.10
2018-01-18T02:59:32.630Z,3.20
2018-01-18T03:00:06.295Z,3.20
2018-01-18T03:00:39.942Z,3.20
2018-01-18T03:01:13.441Z,3.20
2018-01-18T03:01:47.086Z,3.30
2018-01-18T03:02:20.733Z,3.30
2018-01-18T03:02:54.395Z,3.30
2018-01-18T03:03:28.071Z,3.30
2018-01-18T03:04:01.755Z,3.40
2018-01-18T03:04:35.426Z,3.40
2018-01-18T03:05:10.043Z,3.40
2018-01-18T03:05:43.694Z,3.40
2018-01-18T03:06:17.386Z,3.40
2018-01-18T03:06:51.041Z,3.40
2018-01-18T03:07:24.701Z,3.40
2018-01-18T03:07:59.152Z,3.40
2018-01-18T03:08:32.805Z,3.30
2018-01-18T03:09:06.461Z,3.40
2018-01-18T03:09:40.118Z,3.30
2018-01-18T03:10:13.785Z,3.30
2018-01-18T03:10:47.463Z,3.30
2018-01-18T03:11:21.165Z,3.30
2018-01-18T03:11:54.826Z,3.30
2018-01-18T03:12:29.245Z,3.20
2018-01-18T03:13:02.903Z,3.20
2018-01-18T03:13:36.575Z,3.20
2018-01-18T03:14:10.243Z,3.20
2018-01-18T03:14:43.904Z,3.20
2018-01-18T03:15:17.555Z,3.20
2018-01-18T03:15:51.213Z,3.20
2018-01-18T03:16:24.582Z,3.10
2018-01-18T03:16:58.242Z,3.10
2018-01-18T03:17:32.653Z,3.10
2018-01-18T03:18:06.312Z,3.10
2018-01-18T03:18:39.957Z,3.10
2018-01-18T03:19:13.618Z,3.10
2018-01-18T03:19:47.270Z,3.10
2018-01-18T03:20:20.976Z,3.10
2018-01-18T03:20:55.402Z,3.00
2018-01-18T03:21:29.107Z,3.10
2018-01-18T03:22:02.768Z,3.00
2018-01-18T03:22:37.185Z,3.00
2018-01-18T03:23:11.629Z,3.00
2018-01-18T03:23:45.311Z,3.00
2018-01-18T03:24:18.984Z,3.00
2018-01-18T03:24:52.665Z,3.10
2018-01-18T03:25:26.312Z,3.00
2018-01-18T03:26:00.006Z,3.00
2018-01-18T03:26:33.696Z,3.00
2018-01-18T03:27:07.353Z,3.00
2018-01-18T03:27:41.019Z,3.00
2018-01-18T03:28:14.730Z,3.00
2018-01-18T03:28:48.530Z,3.00
2018-01-18T03:29:22.208Z,3.00
2018-01-18T03:29:55.864Z,3.00
2018-01-18T03:30:30.279Z,3.00
2018-01-18T03:31:03.601Z,3.00
2018-01-18T03:31:37.289Z,3.00
2018-01-18T03:32:10.933Z,3.00
2018-01-18T03:32:45.366Z,3.00
2018-01-18T03:33:19.031Z,3.00
2018-01-18T03:33:53.454Z,3.00
2018-01-18T03:34:27.108Z,3.00
2018-01-18T03:35:00.754Z,3.00
2018-01-18T03:35:34.406Z,3.00
2018-01-18T03:36:08.814Z,3.00
2018-01-18T03:36:43.263Z,3.00
2018-01-18T03:37:16.912Z,3.00
2018-01-18T03:37:51.327Z,3.00
2018-01-18T03:38:25.752Z,3.00
2018-01-18T03:38:59.620Z,3.00
2018-01-18T03:39:34.053Z,3.10
2018-01-18T03:40:07.709Z,3.00
2018-01-18T03:40:43.162Z,3.10
2018-01-18T03:41:16.829Z,3.10
2018-01-18T03:41:50.495Z,3.10
2018-01-18T03:42:24.145Z,3.10
2018-01-18T03:42:57.806Z,3.10
2018-01-18T03:43:32.297Z,3.10
2018-01-18T03:44:06.756Z,3.00
2018-01-18T03:44:41.333Z,3.00
2018-01-18T03:45:15.734Z,3.00
2018-01-18T03:45:50.149Z,3.00
2018-01-18T03:46:23.805Z,3.00
2018-01-18T03:46:57.481Z,3.00
2018-01-18T03:47:31.138Z,3.00
2018-01-18T03:48:04.890Z,3.00
2018-01-18T03:48:38.533Z,3.00
2018-01-18T03:49:12.177Z,3.00
2018-01-18T03:49:46.590Z,3.00
2018-01-18T03:50:20.365Z,3.00
2018-01-18T03:50:54.793Z,3.00
2018-01-18T03:51:28.458Z,3.00
2018-01-18T03:52:02.135Z,3.00
2018-01-18T03:52:35.782Z,3.00
2018-01-18T03:53:09.443Z,3.00
2018-01-18T03:53:43.849Z,3.00
2018-01-18T03:54:17.509Z,3.00
2018-01-18T03:54:51.158Z,3.00
2018-01-18T03:55:24.811Z,3.00
2018-01-18T03:55:59.242Z,3.00
2018-01-18T03:56:32.919Z,3.00
2018-01-18T03:57:06.601Z,3.00
2018-01-18T03:57:41.028Z,3.00
2018-01-18T03:58:14.698Z,3.00
2018-01-18T03:58:49.134Z,3.00
2018-01-18T03:59:22.790Z,3.00
2018-01-18T03:59:57.205Z,3.00
2018-01-18T04:00:30.874Z,3.00
2018-01-18T04:01:04.524Z,3.00
2018-01-18T04:01:39.127Z,3.00
2018-01-18T04:02:12.815Z,3.00
2018-01-18T04:02:46.465Z,3.00
2018-01-18T04:03:20.883Z,3.00
2018-01-18T04:03:54.547Z,3.00
2018-01-18T04:04:28.210Z,3.00
2018-01-18T04:05:01.870Z,3.00
2018-01-18T04:05:35.556Z,3.00
2018-01-18T04:06:08.559Z,3.00
2018-01-18T04:06:42.230Z,3.00
2018-01-18T04:07:15.912Z,3.00
2018-01-18T04:07:49.237Z,3.00
2018-01-18T04:08:22.710Z,3.00
2018-01-18T04:08:56.169Z,3.00
2018-01-18T04:09:29.830Z,3.00
2018-01-18T04:10:03.581Z,3.00
2018-01-18T04:10:37.237Z,3.00
2018-01-18T04:11:10.893Z,3.00
2018-01-18T04:11:45.339Z,3.00
2018-01-18T04:12:19.034Z,3.00
2018-01-18T04:12:52.681Z,3.00
2018-01-18T04:13:27.110Z,3.00
2018-01-18T04:14:00.773Z,3.00
2018-01-18T04:14:35.198Z,3.00
2018-01-18T04:15:08.858Z,3.00
2018-01-18T04:15:42.502Z,3.00
2018-01-18T04:16:16.163Z,3.00
2018-01-18T04:16:49.815Z,3.00
2018-01-18T04:17:23.518Z,3.00
2018-01-18T04:17:57.182Z,3.00
2018-01-18T04:18:30.830Z,3.00
2018-01-18T04:19:04.489Z,3.00
2018-01-18T04:19:38.904Z,3.00
2018-01-18T04:20:13.325Z,3.00
2018-01-18T04:20:47.039Z,3.00
2018-01-18T04:21:21.610Z,3.00
2018-01-18T04:21:56.022Z,3.00
2018-01-18T04:22:30.490Z,3.00
2018-01-18T04:23:04.137Z,3.00
2018-01-18T04:23:37.794Z,3.00
2018-01-18T04:24:11.471Z,3.00
2018-01-18T04:24:44.794Z,3.00
2018-01-18T04:25:18.458Z,3.00
2018-01-18T04:25:52.888Z,3.00
2018-01-18T04:26:26.555Z,3.00
2018-01-18T04:27:00.983Z,3.00
2018-01-18T04:27:34.672Z,3.00
2018-01-18T04:28:08.319Z,3.00
2018-01-18T04:28:41.973Z,3.00
2018-01-18T04:29:15.962Z,3.00
2018-01-18T04:29:49.623Z,3.00
2018-01-18T04:30:24.051Z,3.00
2018-01-18T04:30:57.707Z,3.00
2018-01-18T04:31:31.359Z,3.00
2018-01-18T04:32:05.014Z,3.00
2018-01-18T04:32:38.708Z,3.00
2018-01-18T04:33:12.367Z,3.00
2018-01-18T04:33:46.011Z,3.00
2018-01-18T04:34:19.675Z,3.00
2018-01-18T04:34:53.344Z,3.00
2018-01-18T04:35:27.775Z,3.00
2018-01-18T04:36:01.429Z,3.00
2018-01-18T04:36:35.081Z,3.00
2018-01-18T04:37:08.754Z,3.00
2018-01-18T04:37:42.700Z,3.00
2018-01-18T04:38:16.373Z,3.00
2018-01-18T04:38:50.030Z,3.00
2018-01-18T04:39:23.679Z,3.00
2018-01-18T04:39:57.766Z,3.00
2018-01-18T04:40:31.428Z,3.00
2018-01-18T04:41:05.086Z,3.00
2018-01-18T04:41:38.562Z,3.00
2018-01-18T04:42:12.214Z,3.00
2018-01-18T04:42:46.221Z,3.00
2018-01-18T04:43:19.877Z,3.00
2018-01-18T04:43:53.553Z,3.00
2018-01-18T04:44:27.206Z,3.00
2018-01-18T04:45:00.873Z,3.00
2018-01-18T04:45:34.534Z,3.00
2018-01-18T04:46:08.201Z,3.00
2018-01-18T04:46:41.862Z,3.00
2018-01-18T04:47:16.274Z,3.00
2018-01-18T04:47:50.249Z,3.00
2018-01-18T04:48:24.667Z,3.00
2018-01-18T04:48:59.094Z,3.00
2018-01-18T04:49:32.754Z,3.00
2018-01-18T04:50:07.256Z,3.00
2018-01-18T04:50:40.936Z,3.00
2018-01-18T04:51:14.595Z,3.00
2018-01-18T04:51:48.254Z,3.00
2018-01-18T04:52:21.914Z,3.00
2018-01-18T04:52:56.367Z,3.00
2018-01-18T04:53:30.018Z,3.00
2018-01-18T04:54:04.447Z,3.00
2018-01-18T04:54:38.130Z,3.00
2018-01-18T04:55:11.790Z,3.00
2018-01-18T04:55:45.447Z,3.00
2018-01-18T04:56:18.781Z,3.00
2018-01-18T04:56:53.218Z,3.10
2018-01-18T04:57:26.883Z,3.00
2018-01-18T04:58:00.884Z,3.00
2018-01-18T04:58:34.550Z,3.00
2018-01-18T04:59:08.215Z,3.00
2018-01-18T04:59:41.929Z,3.00
2018-01-18T05:00:16.346Z,3.00
2018-01-18T05:00:50.765Z,3.00
2018-01-18T05:01:24.433Z,3.00
2018-01-18T05:01:59.304Z,3.10
2018-01-18T05:02:32.958Z,3.00
2018-01-18T05:03:06.648Z,3.10
2018-01-18T05:03:40.310Z,3.10
2018-01-18T05:04:14.137Z,3.10
2018-01-18T05:04:47.803Z,3.10
2018-01-18T05:05:22.228Z,3.10
2018-01-18T05:05:56.672Z,3.10
2018-01-18T05:06:30.322Z,3.00
2018-01-18T05:07:04.801Z,3.10
2018-01-18T05:07:38.605Z,3.00
2018-01-18T05:08:12.295Z,3.10
2018-01-18T05:08:45.963Z,3.10
2018-01-18T05:09:19.614Z,3.10
2018-01-18T05:09:53.266Z,3.10
2018-01-18T05:10:26.648Z,3.10
2018-01-18T05:11:00.313Z,3.10
2018-01-18T05:11:33.974Z,3.10
2018-01-18T05:12:07.633Z,3.10
2018-01-18T05:12:41.285Z,3.10
2018-01-18T05:13:14.953Z,3.10
2018-01-18T05:13:48.611Z,3.10
2018-01-18T05:14:22.282Z,3.10
2018-01-18T05:14:56.709Z,3.10
2018-01-18T05:15:30.366Z,3.10
2018-01-18T05:16:04.031Z,3.00
2018-01-18T05:16:37.675Z,3.10
2018-01-18T05:17:11.332Z,3.10
2018-01-18T05:17:44.984Z,3.10
2018-01-18T05:18:18.665Z,3.10
2018-01-18T05:18:52.314Z,3.10
2018-01-18T05:19:26.756Z,3.10
2018-01-18T05:20:00.409Z,3.10
2018-01-18T05:20:34.854Z,3.10
2018-01-18T05:21:08.493Z,3.10
2018-01-18T05:21:41.828Z,3.10
2018-01-18T05:22:15.501Z,3.10
2018-01-18T05:22:49.257Z,3.10
2018-01-18T05:23:23.049Z,3.10
2018-01-18T05:23:57.995Z,3.10
2018-01-18T05:24:31.662Z,3.10
2018-01-18T05:25:06.098Z,3.10
2018-01-18T05:25:39.857Z,3.10
2018-01-18T05:26:13.532Z,3.10
2018-01-18T05:26:47.193Z,3.10
2018-01-18T05:27:20.852Z,3.10
2018-01-18T05:27:54.542Z,3.10
2018-01-18T05:28:28.036Z,3.10
2018-01-18T05:29:01.712Z,3.10
2018-01-18T05:29:35.375Z,3.10
2018-01-18T05:30:09.026Z,3.10
2018-01-18T05:30:42.706Z,3.20
2018-01-18T05:31:16.367Z,3.10
2018-01-18T05:31:50.058Z,3.10
2018-01-18T05:32:23.723Z,3.10
2018-01-18T05:32:57.387Z,3.10
2018-01-18T05:33:31.091Z,3.10
2018-01-18T05:34:04.434Z,3.10
2018-01-18T05:34:38.092Z,3.10
2018-01-18T05:35:12.519Z,3.10
2018-01-18T05:35:46.320Z,3.10
2018-01-18T05:36:19.969Z,3.10
2018-01-18T05:36:54.394Z,3.10
2018-01-18T05:37:28.063Z,3.10
2018-01-18T05:38:40.395Z,3.10
2018-01-18T05:39:14.060Z,3.10
2018-01-18T05:39:48.484Z,3.10
2018-01-18T05:40:22.890Z,3.10
2018-01-18T05:40:56.559Z,3.10
2018-01-18T05:41:30.998Z,3.10
2018-01-18T05:42:04.441Z,3.10
2018-01-18T05:42:38.114Z,3.10
2018-01-18T05:43:11.784Z,3.10
2018-01-18T05:43:45.473Z,3.10
2018-01-18T05:44:19.140Z,3.10
2018-01-18T05:44:52.773Z,3.10
2018-01-18T05:45:26.146Z,3.10
2018-01-18T05:45:59.789Z,3.10
2018-01-18T05:46:33.453Z,3.10
2018-01-18T05:47:07.887Z,3.10
2018-01-18T05:47:41.548Z,3.10
2018-01-18T05:48:16.006Z,3.10
2018-01-18T05:48:49.702Z,3.10
2018-01-18T05:49:23.422Z,3.10
2018-01-18T05:49:57.074Z,3.10
2018-01-18T05:50:30.812Z,3.10
2018-01-18T05:51:04.147Z,3.10
2018-01-18T05:51:37.799Z,3.10
2018-01-18T05:52:12.249Z,3.10
2018-01-18T05:52:45.929Z,3.10
2018-01-18T05:53:19.595Z,3.10
2018-01-18T05:53:53.100Z,3.10
2018-01-18T05:54:26.773Z,3.10
2018-01-18T05:55:00.439Z,3.10
2018-01-18T05:55:34.870Z,3.10
2018-01-18T05:56:08.558Z,3.10
2018-01-18T05:56:42.030Z,3.10
2018-01-18T05:57:16.276Z,3.10
2018-01-18T05:57:49.584Z,3.10
2018-01-18T05:58:23.229Z,3.10
2018-01-18T05:58:56.907Z,3.10
2018-01-18T05:59:30.570Z,3.10
2018-01-18T06:00:04.339Z,3.10
2018-01-18T06:00:37.997Z,3.10
2018-01-18T06:01:11.645Z,3.10
2018-01-18T06:01:46.148Z,3.10
2018-01-18T06:02:20.562Z,3.20
2018-01-18T06:02:55.018Z,3.20
2018-01-18T06:03:28.551Z,3.20
2018-01-18T06:04:03.009Z,3.20
2018-01-18T06:04:36.680Z,3.10
2018-01-18T06:05:10.369Z,3.20
2018-01-18T06:05:44.033Z,3.10
2018-01-18T06:06:18.485Z,3.20
2018-01-18T06:06:52.196Z,3.20
2018-01-18T06:07:25.890Z,3.20
2018-01-18T06:08:01.073Z,3.20
2018-01-18T06:08:34.750Z,3.20
2018-01-18T06:09:08.462Z,3.20
2018-01-18T06:09:42.332Z,3.20
2018-01-18T06:10:16.762Z,3.20
2018-01-18T06:10:50.413Z,3.20
2018-01-18T06:11:24.847Z,3.20
2018-01-18T06:11:58.510Z,3.20
2018-01-18T06:12:32.963Z,3.20
2018-01-18T06:13:06.615Z,3.20
2018-01-18T06:13:41.046Z,3.20
2018-01-18T06:14:14.712Z,3.10
2018-01-18T06:14:49.183Z,3.20
2018-01-18T06:15:22.868Z,3.20
2018-01-18T06:15:56.524Z,3.20
2018-01-18T06:16:30.188Z,3.20
2018-01-18T06:17:04.630Z,3.20
2018-01-18T06:17:38.576Z,3.20
2018-01-18T06:18:13.019Z,3.20
2018-01-18T06:18:46.710Z,3.20
2018-01-18T06:19:20.386Z,3.20
2018-01-18T06:19:54.854Z,3.20
2018-01-18T06:20:28.511Z,3.20
2018-01-18T06:21:02.158Z,3.20
2018-01-18T06:21:36.606Z,3.20
2018-01-18T06:22:10.268Z,3.20
2018-01-18T06:22:43.935Z,3.20
2018-01-18T06:23:18.382Z,3.20
2018-01-18T06:23:52.064Z,3.20
2018-01-18T06:24:25.718Z,3.20
2018-01-18T06:25:00.034Z,3.20
2018-01-18T06:25:34.482Z,3.20
2018-01-18T06:26:07.830Z,3.20
2018-01-18T06:26:42.271Z,3.20
2018-01-18T06:27:15.925Z,3.20
2018-01-18T06:27:50.367Z,3.20
2018-01-18T06:28:24.056Z,3.20
2018-01-18T06:28:57.711Z,3.20
2018-01-18T06:29:32.146Z,3.20
2018-01-18T06:30:05.830Z,3.20
2018-01-18T06:30:39.484Z,3.20
2018-01-18T06:31:13.148Z,3.20
2018-01-18T06:31:46.809Z,3.20
2018-01-18T06:32:20.470Z,3.20
2018-01-18T06:32:55.038Z,3.20
2018-01-18T06:33:28.699Z,3.20
2018-01-18T06:34:02.372Z,3.20
2018-01-18T06:34:36.035Z,3.20
2018-01-18T06:35:10.133Z,3.20
2018-01-18T06:35:44.584Z,3.20
2018-01-18T06:36:18.241Z,3.20
2018-01-18T06:36:52.714Z,3.30
2018-01-18T06:37:26.383Z,3.20
2018-01-18T06:38:00.051Z,3.20
2018-01-18T06:38:33.716Z,3.30
2018-01-18T06:39:08.144Z,3.30
2018-01-18T06:39:42.001Z,3.30
2018-01-18T06:40:15.671Z,3.30
2018-01-18T06:40:49.335Z,3.30
2018-01-18T06:41:23.014Z,3.30
2018-01-18T06:41:56.710Z,3.30
2018-01-18T06:42:30.370Z,3.30
2018-01-18T06:43:04.459Z,3.30
2018-01-18T06:43:38.907Z,3.20
2018-01-18T06:44:12.589Z,3.20
2018-01-18T06:44:46.249Z,3.30
2018-01-18T06:45:20.686Z,3.30
2018-01-18T06:45:54.363Z,3.20
2018-01-18T06:46:28.032Z,3.30
2018-01-18T06:47:02.484Z,3.30
2018-01-18T06:47:36.162Z,3.20
2018-01-18T06:48:09.825Z,3.30
2018-01-18T06:48:44.261Z,3.20
2018-01-18T06:49:17.913Z,3.30
2018-01-18T06:49:52.349Z,3.30
2018-01-18T06:50:26.018Z,3.20
2018-01-18T06:51:00.437Z,3.30
2018-01-18T06:51:34.095Z,3.20
2018-01-18T06:52:07.784Z,3.30
2018-01-18T06:52:41.485Z,3.30
2018-01-18T06:53:15.928Z,3.30
2018-01-18T06:53:49.410Z,3.20
2018-01-18T06:54:23.072Z,3.30
2018-01-18T06:54:57.513Z,3.30
2018-01-18T06:55:31.186Z,3.30
2018-01-18T06:56:04.849Z,3.30
2018-01-18T06:56:39.295Z,3.30
2018-01-18T06:57:13.047Z,3.30
2018-01-18T06:57:47.475Z,3.30
2018-01-18T06:58:21.117Z,3.20
2018-01-18T06:58:54.772Z,3.30
2018-01-18T06:59:28.429Z,3.30
2018-01-18T07:00:02.866Z,3.30
2018-01-18T07:00:36.531Z,3.20
2018-01-18T07:01:10.962Z,3.30
2018-01-18T07:01:44.629Z,3.20
2018-01-18T07:02:19.081Z,3.20
2018-01-18T07:02:52.745Z,3.20
2018-01-18T07:03:26.403Z,3.20
2018-01-18T07:04:00.907Z,3.20
2018-01-18T07:04:35.356Z,3.20
2018-01-18T07:05:09.024Z,3.20
2018-01-18T07:05:42.703Z,3.20
2018-01-18T07:06:17.141Z,3.20
2018-01-18T07:06:50.811Z,3.20
2018-01-18T07:07:25.265Z,3.20
2018-01-18T07:07:58.936Z,3.20
2018-01-18T07:08:32.590Z,3.20
2018-01-18T07:09:07.035Z,3.20
2018-01-18T07:09:40.711Z,3.20
2018-01-18T07:10:14.387Z,3.20
2018-01-18T07:10:48.077Z,3.20
2018-01-18T07:11:21.746Z,3.20
2018-01-18T07:11:55.615Z,3.20
2018-01-18T07:12:29.298Z,3.20
2018-01-18T07:13:02.962Z,3.20
2018-01-18T07:13:36.624Z,3.20
2018-01-18T07:14:10.312Z,3.20
2018-01-18T07:14:43.966Z,3.20
2018-01-18T07:15:17.660Z,3.20
2018-01-18T07:15:51.335Z,3.20
2018-01-18T07:16:25.026Z,3.20
2018-01-18T07:16:58.681Z,3.20
2018-01-18T07:17:32.387Z,3.20
2018-01-18T07:18:06.121Z,3.20
2018-01-18T07:18:40.552Z,3.20
2018-01-18T07:19:14.218Z,3.20
2018-01-18T07:19:48.669Z,3.20
2018-01-18T07:20:22.338Z,3.20
2018-01-18T07:20:55.668Z,3.20
2018-01-18T07:21:29.330Z,3.20
2018-01-18T07:22:02.998Z,3.20
2018-01-18T07:22:36.683Z,3.20
2018-01-18T07:23:10.373Z,3.20
2018-01-18T07:23:44.805Z,3.20
2018-01-18T07:24:18.475Z,3.20
2018-01-18T07:24:52.139Z,3.20
2018-01-18T07:25:25.800Z,3.20
2018-01-18T07:25:59.301Z,3.20
2018-01-18T07:26:32.978Z,3.20
2018-01-18T07:27:06.633Z,3.20
2018-01-18T07:27:40.322Z,3.20
2018-01-18T07:28:13.981Z,3.20
2018-01-18T07:28:48.423Z,3.20
2018-01-18T07:29:22.077Z,3.10
2018-01-18T07:29:56.516Z,3.20
2018-01-18T07:30:29.848Z,3.10
2018-01-18T07:31:03.513Z,3.10
2018-01-18T07:31:37.174Z,3.10